sensor_id;sensor_type;location;lat;lon;timestamp;P1;P2;P0
47810;PMS5003;33575;52.600;7.318;2024-02-15T00:00:18;20;18;
47810;PMS5003;33575;52.600;7.318;2024-02-15T00:02:53;23;16;
47810;PMS5003;33575;52.600;7.318;2024-02-15T00:05:19;19;15;
47810;PMS5003;33575;52.600;7.318;2024-02-15T00:07:50;15;15;
47810;PMS5003;33575;52.600;7.318;2024-02-15T00:10:20;26;18;
47810;PMS5003;33575;52.600;7.318;2024-02-15T00:12:51;19;17;
47810;PMS5003;33575;52.600;7.318;2024-02-15T00:15:21;15;14;
47810;PMS5003;33575;52.600;7.318;2024-02-15T00:17:52;17;16;
47810;PMS5003;33575;52.600;7.318;2024-02-15T00:20:22;13;13;
47810;PMS5003;33575;52.600;7.318;2024-02-15T00:22:52;20;16;
47810;PMS5003;33575;52.600;7.318;2024-02-15T00:25:23;16;16;
47810;PMS5003;33575;52.600;7.318;2024-02-15T00:27:53;27;21;
47810;PMS5003;33575;52.600;7.318;2024-02-15T00:30:24;25;16;
47810;PMS5003;33575;52.600;7.318;2024-02-15T00:32:55;13;13;
47810;PMS5003;33575;52.600;7.318;2024-02-15T00:35:25;19;17;
47810;PMS5003;33575;52.600;7.318;2024-02-15T00:37:55;16;15;
47810;PMS5003;33575;52.600;7.318;2024-02-15T00:40:25;18;14;
47810;PMS5003;33575;52.600;7.318;2024-02-15T00:42:56;18;17;
47810;PMS5003;33575;52.600;7.318;2024-02-15T00:45:26;16;16;
47810;PMS5003;33575;52.600;7.318;2024-02-15T00:47:57;15;13;
47810;PMS5003;33575;52.600;7.318;2024-02-15T00:50:27;21;18;
47810;PMS5003;33575;52.600;7.318;2024-02-15T00:52:57;14;13;
47810;PMS5003;33575;52.600;7.318;2024-02-15T00:55:28;15;15;
47810;PMS5003;33575;52.600;7.318;2024-02-15T00:57:58;17;16;
47810;PMS5003;33575;52.600;7.318;2024-02-15T01:00:29;25;16;
47810;PMS5003;33575;52.600;7.318;2024-02-15T01:03:00;11;11;
47810;PMS5003;33575;52.600;7.318;2024-02-15T01:05:30;16;15;
47810;PMS5003;33575;52.600;7.318;2024-02-15T01:08:01;23;18;
47810;PMS5003;33575;52.600;7.318;2024-02-15T01:10:31;25;17;
47810;PMS5003;33575;52.600;7.318;2024-02-15T01:13:02;22;17;
47810;PMS5003;33575;52.600;7.318;2024-02-15T01:15:32;17;17;
47810;PMS5003;33575;52.600;7.318;2024-02-15T01:18:03;17;14;
47810;PMS5003;33575;52.600;7.318;2024-02-15T01:20:33;17;17;
47810;PMS5003;33575;52.600;7.318;2024-02-15T01:23:03;22;18;
47810;PMS5003;33575;52.600;7.318;2024-02-15T01:25:34;22;18;
47810;PMS5003;33575;52.600;7.318;2024-02-15T01:28:04;19;18;
47810;PMS5003;33575;52.600;7.318;2024-02-15T01:30:35;23;21;
47810;PMS5003;33575;52.600;7.318;2024-02-15T01:33:06;24;22;
47810;PMS5003;33575;52.600;7.318;2024-02-15T01:35:36;25;25;
47810;PMS5003;33575;52.600;7.318;2024-02-15T01:38:07;31;26;
47810;PMS5003;33575;52.600;7.318;2024-02-15T01:40:37;36;25;
47810;PMS5003;33575;52.600;7.318;2024-02-15T01:43:08;26;23;
47810;PMS5003;33575;52.600;7.318;2024-02-15T01:45:38;27;23;
47810;PMS5003;33575;52.600;7.318;2024-02-15T01:48:09;52;38;
47810;PMS5003;33575;52.600;7.318;2024-02-15T01:50:39;37;29;
47810;PMS5003;33575;52.600;7.318;2024-02-15T01:53:09;27;24;
47810;PMS5003;33575;52.600;7.318;2024-02-15T01:55:40;37;27;
47810;PMS5003;33575;52.600;7.318;2024-02-15T01:58:09;42;37;
47810;PMS5003;33575;52.600;7.318;2024-02-15T02:00:40;27;25;
47810;PMS5003;33575;52.600;7.318;2024-02-15T02:03:11;29;24;
47810;PMS5003;33575;52.600;7.318;2024-02-15T02:05:42;27;25;
47810;PMS5003;33575;52.600;7.318;2024-02-15T02:08:11;30;27;
47810;PMS5003;33575;52.600;7.318;2024-02-15T02:10:42;21;21;
47810;PMS5003;33575;52.600;7.318;2024-02-15T02:13:13;30;26;
47810;PMS5003;33575;52.600;7.318;2024-02-15T02:15:44;30;23;
47810;PMS5003;33575;52.600;7.318;2024-02-15T02:18:14;27;25;
47810;PMS5003;33575;52.600;7.318;2024-02-15T02:20:44;20;19;
47810;PMS5003;33575;52.600;7.318;2024-02-15T02:23:16;29;24;
47810;PMS5003;33575;52.600;7.318;2024-02-15T02:25:46;26;20;
47810;PMS5003;33575;52.600;7.318;2024-02-15T02:28:16;32;23;
47810;PMS5003;33575;52.600;7.318;2024-02-15T02:30:47;24;20;
47810;PMS5003;33575;52.600;7.318;2024-02-15T02:33:17;19;17;
47810;PMS5003;33575;52.600;7.318;2024-02-15T02:35:48;19;18;
47810;PMS5003;33575;52.600;7.318;2024-02-15T02:38:19;19;18;
47810;PMS5003;33575;52.600;7.318;2024-02-15T02:40:49;20;17;
47810;PMS5003;33575;52.600;7.318;2024-02-15T02:43:20;19;17;
47810;PMS5003;33575;52.600;7.318;2024-02-15T02:45:51;25;18;
47810;PMS5003;33575;52.600;7.318;2024-02-15T02:48:21;17;13;
47810;PMS5003;33575;52.600;7.318;2024-02-15T02:50:51;16;15;
47810;PMS5003;33575;52.600;7.318;2024-02-15T02:53:22;15;14;
47810;PMS5003;33575;52.600;7.318;2024-02-15T02:55:52;14;14;
47810;PMS5003;33575;52.600;7.318;2024-02-15T02:58:22;12;11;
47810;PMS5003;33575;52.600;7.318;2024-02-15T03:00:53;15;13;
47810;PMS5003;33575;52.600;7.318;2024-02-15T03:03:23;14;14;
47810;PMS5003;33575;52.600;7.318;2024-02-15T03:05:53;13;12;
47810;PMS5003;33575;52.600;7.318;2024-02-15T03:08:24;14;13;
47810;PMS5003;33575;52.600;7.318;2024-02-15T03:10:54;13;12;
47810;PMS5003;33575;52.600;7.318;2024-02-15T03:13:24;11;10;
47810;PMS5003;33575;52.600;7.318;2024-02-15T03:15:54;10;9;
47810;PMS5003;33575;52.600;7.318;2024-02-15T03:18:25;13;12;
47810;PMS5003;33575;52.600;7.318;2024-02-15T03:20:55;12;12;
47810;PMS5003;33575;52.600;7.318;2024-02-15T03:23:26;15;11;
47810;PMS5003;33575;52.600;7.318;2024-02-15T03:25:56;12;11;
47810;PMS5003;33575;52.600;7.318;2024-02-15T03:28:26;12;12;
47810;PMS5003;33575;52.600;7.318;2024-02-15T03:30:57;16;13;
47810;PMS5003;33575;52.600;7.318;2024-02-15T03:33:28;15;14;
47810;PMS5003;33575;52.600;7.318;2024-02-15T03:35:58;15;13;
47810;PMS5003;33575;52.600;7.318;2024-02-15T03:38:28;15;14;
47810;PMS5003;33575;52.600;7.318;2024-02-15T03:40:59;18;17;
47810;PMS5003;33575;52.600;7.318;2024-02-15T03:43:30;17;17;
47810;PMS5003;33575;52.600;7.318;2024-02-15T03:46:00;19;19;
47810;PMS5003;33575;52.600;7.318;2024-02-15T03:48:30;31;20;
47810;PMS5003;33575;52.600;7.318;2024-02-15T03:51:01;29;22;
47810;PMS5003;33575;52.600;7.318;2024-02-15T03:53:31;30;25;
47810;PMS5003;33575;52.600;7.318;2024-02-15T03:56:02;30;24;
47810;PMS5003;33575;52.600;7.318;2024-02-15T03:58:32;32;24;
47810;PMS5003;33575;52.600;7.318;2024-02-15T04:01:03;38;38;
47810;PMS5003;33575;52.600;7.318;2024-02-15T04:03:33;45;33;
47810;PMS5003;33575;52.600;7.318;2024-02-15T04:06:04;41;31;
47810;PMS5003;33575;52.600;7.318;2024-02-15T04:08:34;37;32;
47810;PMS5003;33575;52.600;7.318;2024-02-15T04:11:04;26;21;
47810;PMS5003;33575;52.600;7.318;2024-02-15T04:13:34;44;38;
47810;PMS5003;33575;52.600;7.318;2024-02-15T04:16:05;42;40;
47810;PMS5003;33575;52.600;7.318;2024-02-15T04:18:35;33;26;
47810;PMS5003;33575;52.600;7.318;2024-02-15T04:21:05;34;26;
47810;PMS5003;33575;52.600;7.318;2024-02-15T04:23:36;42;40;
47810;PMS5003;33575;52.600;7.318;2024-02-15T04:26:06;39;36;
47810;PMS5003;33575;52.600;7.318;2024-02-15T04:28:36;38;30;
47810;PMS5003;33575;52.600;7.318;2024-02-15T04:31:07;36;29;
47810;PMS5003;33575;52.600;7.318;2024-02-15T04:33:37;29;25;
47810;PMS5003;33575;52.600;7.318;2024-02-15T04:36:07;39;37;
47810;PMS5003;33575;52.600;7.318;2024-02-15T04:38:38;38;28;
47810;PMS5003;33575;52.600;7.318;2024-02-15T04:41:08;34;29;
47810;PMS5003;33575;52.600;7.318;2024-02-15T04:43:39;37;27;
47810;PMS5003;33575;52.600;7.318;2024-02-15T04:46:09;82;80;
47810;PMS5003;33575;52.600;7.318;2024-02-15T04:48:40;28;24;
47810;PMS5003;33575;52.600;7.318;2024-02-15T04:51:10;30;29;
47810;PMS5003;33575;52.600;7.318;2024-02-15T04:53:41;34;29;
47810;PMS5003;33575;52.600;7.318;2024-02-15T04:56:11;32;27;
47810;PMS5003;33575;52.600;7.318;2024-02-15T04:58:42;35;29;
47810;PMS5003;33575;52.600;7.318;2024-02-15T05:01:12;33;25;
47810;PMS5003;33575;52.600;7.318;2024-02-15T05:03:43;39;39;
47810;PMS5003;33575;52.600;7.318;2024-02-15T05:06:13;30;29;
47810;PMS5003;33575;52.600;7.318;2024-02-15T05:08:43;27;24;
47810;PMS5003;33575;52.600;7.318;2024-02-15T05:11:13;34;31;
47810;PMS5003;33575;52.600;7.318;2024-02-15T05:13:44;35;26;
47810;PMS5003;33575;52.600;7.318;2024-02-15T05:16:14;34;26;
47810;PMS5003;33575;52.600;7.318;2024-02-15T05:18:45;34;25;
47810;PMS5003;33575;52.600;7.318;2024-02-15T05:21:15;37;26;
47810;PMS5003;33575;52.600;7.318;2024-02-15T05:23:45;34;28;
47810;PMS5003;33575;52.600;7.318;2024-02-15T05:26:16;35;30;
47810;PMS5003;33575;52.600;7.318;2024-02-15T05:28:46;37;32;
47810;PMS5003;33575;52.600;7.318;2024-02-15T05:31:17;50;47;
47810;PMS5003;33575;52.600;7.318;2024-02-15T05:33:48;38;34;
47810;PMS5003;33575;52.600;7.318;2024-02-15T05:36:18;32;25;
47810;PMS5003;33575;52.600;7.318;2024-02-15T05:38:49;28;25;
47810;PMS5003;33575;52.600;7.318;2024-02-15T05:41:18;32;28;
47810;PMS5003;33575;52.600;7.318;2024-02-15T05:43:49;32;31;
47810;PMS5003;33575;52.600;7.318;2024-02-15T05:46:20;27;21;
47810;PMS5003;33575;52.600;7.318;2024-02-15T05:48:50;27;21;
47810;PMS5003;33575;52.600;7.318;2024-02-15T05:51:21;26;19;
47810;PMS5003;33575;52.600;7.318;2024-02-15T05:53:51;26;21;
47810;PMS5003;33575;52.600;7.318;2024-02-15T05:56:21;36;29;
47810;PMS5003;33575;52.600;7.318;2024-02-15T05:58:52;26;23;
47810;PMS5003;33575;52.600;7.318;2024-02-15T06:01:23;35;31;
47810;PMS5003;33575;52.600;7.318;2024-02-15T06:03:53;30;25;
47810;PMS5003;33575;52.600;7.318;2024-02-15T06:06:24;32;26;
47810;PMS5003;33575;52.600;7.318;2024-02-15T06:08:54;31;24;
47810;PMS5003;33575;52.600;7.318;2024-02-15T06:11:25;32;23;
47810;PMS5003;33575;52.600;7.318;2024-02-15T06:13:55;60;56;
47810;PMS5003;33575;52.600;7.318;2024-02-15T06:16:26;29;22;
47810;PMS5003;33575;52.600;7.318;2024-02-15T06:18:56;27;23;
47810;PMS5003;33575;52.600;7.318;2024-02-15T06:21:26;25;22;
47810;PMS5003;33575;52.600;7.318;2024-02-15T06:23:57;32;26;
47810;PMS5003;33575;52.600;7.318;2024-02-15T06:26:27;47;43;
47810;PMS5003;33575;52.600;7.318;2024-02-15T06:28:59;40;25;
47810;PMS5003;33575;52.600;7.318;2024-02-15T06:31:28;28;24;
47810;PMS5003;33575;52.600;7.318;2024-02-15T06:33:59;33;21;
47810;PMS5003;33575;52.600;7.318;2024-02-15T06:36:28;26;21;
47810;PMS5003;33575;52.600;7.318;2024-02-15T06:38:59;24;20;
47810;PMS5003;33575;52.600;7.318;2024-02-15T06:41:29;26;21;
47810;PMS5003;33575;52.600;7.318;2024-02-15T06:43:59;31;24;
47810;PMS5003;33575;52.600;7.318;2024-02-15T06:46:30;30;22;
47810;PMS5003;33575;52.600;7.318;2024-02-15T06:49:00;26;19;
47810;PMS5003;33575;52.600;7.318;2024-02-15T06:51:30;37;29;
47810;PMS5003;33575;52.600;7.318;2024-02-15T06:54:01;36;31;
47810;PMS5003;33575;52.600;7.318;2024-02-15T06:56:35;35;30;
47810;PMS5003;33575;52.600;7.318;2024-02-15T06:59:02;28;22;
47810;PMS5003;33575;52.600;7.318;2024-02-15T07:01:32;28;22;
47810;PMS5003;33575;52.600;7.318;2024-02-15T07:04:02;26;19;
47810;PMS5003;33575;52.600;7.318;2024-02-15T07:06:32;32;26;
47810;PMS5003;33575;52.600;7.318;2024-02-15T07:09:03;32;21;
47810;PMS5003;33575;52.600;7.318;2024-02-15T07:11:33;29;16;
47810;PMS5003;33575;52.600;7.318;2024-02-15T07:14:04;26;23;
47810;PMS5003;33575;52.600;7.318;2024-02-15T07:16:34;25;20;
47810;PMS5003;33575;52.600;7.318;2024-02-15T07:19:05;24;20;
47810;PMS5003;33575;52.600;7.318;2024-02-15T07:21:35;23;20;
47810;PMS5003;33575;52.600;7.318;2024-02-15T07:24:06;41;38;
47810;PMS5003;33575;52.600;7.318;2024-02-15T07:26:36;25;21;
47810;PMS5003;33575;52.600;7.318;2024-02-15T07:29:07;30;22;
47810;PMS5003;33575;52.600;7.318;2024-02-15T07:31:37;26;20;
47810;PMS5003;33575;52.600;7.318;2024-02-15T07:34:08;35;32;
47810;PMS5003;33575;52.600;7.318;2024-02-15T07:36:37;29;24;
47810;PMS5003;33575;52.600;7.318;2024-02-15T07:39:08;32;27;
47810;PMS5003;33575;52.600;7.318;2024-02-15T07:41:38;32;31;
47810;PMS5003;33575;52.600;7.318;2024-02-15T07:44:08;24;15;
47810;PMS5003;33575;52.600;7.318;2024-02-15T07:46:39;21;20;
47810;PMS5003;33575;52.600;7.318;2024-02-15T07:49:10;32;30;
47810;PMS5003;33575;52.600;7.318;2024-02-15T07:51:40;27;19;
47810;PMS5003;33575;52.600;7.318;2024-02-15T07:54:11;23;15;
47810;PMS5003;33575;52.600;7.318;2024-02-15T07:56:42;28;20;
47810;PMS5003;33575;52.600;7.318;2024-02-15T07:59:12;22;16;
47810;PMS5003;33575;52.600;7.318;2024-02-15T08:01:43;24;18;
47810;PMS5003;33575;52.600;7.318;2024-02-15T08:04:18;21;14;
47810;PMS5003;33575;52.600;7.318;2024-02-15T08:06:45;18;14;
47810;PMS5003;33575;52.600;7.318;2024-02-15T08:09:16;26;20;
47810;PMS5003;33575;52.600;7.318;2024-02-15T08:11:46;32;26;
47810;PMS5003;33575;52.600;7.318;2024-02-15T08:14:17;22;15;
47810;PMS5003;33575;52.600;7.318;2024-02-15T08:16:48;24;17;
47810;PMS5003;33575;52.600;7.318;2024-02-15T08:19:18;21;13;
47810;PMS5003;33575;52.600;7.318;2024-02-15T08:21:49;32;29;
47810;PMS5003;33575;52.600;7.318;2024-02-15T08:24:19;21;16;
47810;PMS5003;33575;52.600;7.318;2024-02-15T08:26:49;33;32;
47810;PMS5003;33575;52.600;7.318;2024-02-15T08:29:20;23;16;
47810;PMS5003;33575;52.600;7.318;2024-02-15T08:31:51;22;20;
47810;PMS5003;33575;52.600;7.318;2024-02-15T08:34:22;21;16;
47810;PMS5003;33575;52.600;7.318;2024-02-15T08:36:53;19;15;
47810;PMS5003;33575;52.600;7.318;2024-02-15T08:39:23;21;15;
47810;PMS5003;33575;52.600;7.318;2024-02-15T08:41:53;17;14;
47810;PMS5003;33575;52.600;7.318;2024-02-15T08:44:23;42;38;
47810;PMS5003;33575;52.600;7.318;2024-02-15T08:46:54;38;35;
47810;PMS5003;33575;52.600;7.318;2024-02-15T08:49:25;23;17;
47810;PMS5003;33575;52.600;7.318;2024-02-15T08:51:55;19;17;
47810;PMS5003;33575;52.600;7.318;2024-02-15T08:54:26;27;25;
47810;PMS5003;33575;52.600;7.318;2024-02-15T08:56:56;22;13;
47810;PMS5003;33575;52.600;7.318;2024-02-15T08:59:26;22;21;
47810;PMS5003;33575;52.600;7.318;2024-02-15T09:01:57;40;36;
47810;PMS5003;33575;52.600;7.318;2024-02-15T09:04:28;20;16;
47810;PMS5003;33575;52.600;7.318;2024-02-15T09:06:58;27;22;
47810;PMS5003;33575;52.600;7.318;2024-02-15T09:09:28;18;16;
47810;PMS5003;33575;52.600;7.318;2024-02-15T09:12:00;27;27;
47810;PMS5003;33575;52.600;7.318;2024-02-15T09:14:30;15;9;
47810;PMS5003;33575;52.600;7.318;2024-02-15T09:17:00;18;16;
47810;PMS5003;33575;52.600;7.318;2024-02-15T09:19:31;50;47;
47810;PMS5003;33575;52.600;7.318;2024-02-15T09:22:01;37;35;
47810;PMS5003;33575;52.600;7.318;2024-02-15T09:24:31;45;44;
47810;PMS5003;33575;52.600;7.318;2024-02-15T09:27:02;19;16;
47810;PMS5003;33575;52.600;7.318;2024-02-15T09:29:33;43;43;
47810;PMS5003;33575;52.600;7.318;2024-02-15T09:32:04;30;29;
47810;PMS5003;33575;52.600;7.318;2024-02-15T09:34:34;18;13;
47810;PMS5003;33575;52.600;7.318;2024-02-15T09:37:04;28;28;
47810;PMS5003;33575;52.600;7.318;2024-02-15T09:39:36;24;24;
47810;PMS5003;33575;52.600;7.318;2024-02-15T09:42:05;26;26;
47810;PMS5003;33575;52.600;7.318;2024-02-15T09:44:36;33;31;
47810;PMS5003;33575;52.600;7.318;2024-02-15T09:47:06;38;38;
47810;PMS5003;33575;52.600;7.318;2024-02-15T09:49:37;15;14;
47810;PMS5003;33575;52.600;7.318;2024-02-15T09:52:07;35;35;
47810;PMS5003;33575;52.600;7.318;2024-02-15T09:54:38;20;20;
47810;PMS5003;33575;52.600;7.318;2024-02-15T09:57:08;20;18;
47810;PMS5003;33575;52.600;7.318;2024-02-15T09:59:38;26;26;
47810;PMS5003;33575;52.600;7.318;2024-02-15T10:02:08;19;19;
47810;PMS5003;33575;52.600;7.318;2024-02-15T10:04:39;14;14;
47810;PMS5003;33575;52.600;7.318;2024-02-15T10:07:09;13;13;
47810;PMS5003;33575;52.600;7.318;2024-02-15T10:09:40;11;11;
47810;PMS5003;33575;52.600;7.318;2024-02-15T10:12:10;10;10;
47810;PMS5003;33575;52.600;7.318;2024-02-15T10:14:44;12;11;
47810;PMS5003;33575;52.600;7.318;2024-02-15T10:17:10;11;10;
47810;PMS5003;33575;52.600;7.318;2024-02-15T10:19:41;11;11;
47810;PMS5003;33575;52.600;7.318;2024-02-15T10:22:11;10;10;
47810;PMS5003;33575;52.600;7.318;2024-02-15T10:24:42;10;10;
47810;PMS5003;33575;52.600;7.318;2024-02-15T10:27:12;12;10;
47810;PMS5003;33575;52.600;7.318;2024-02-15T10:29:43;14;12;
47810;PMS5003;33575;52.600;7.318;2024-02-15T10:32:13;24;24;
47810;PMS5003;33575;52.600;7.318;2024-02-15T10:34:44;28;28;
47810;PMS5003;33575;52.600;7.318;2024-02-15T10:37:14;39;39;
47810;PMS5003;33575;52.600;7.318;2024-02-15T10:39:44;15;15;
47810;PMS5003;33575;52.600;7.318;2024-02-15T10:42:15;7;7;
47810;PMS5003;33575;52.600;7.318;2024-02-15T10:44:45;9;8;
47810;PMS5003;33575;52.600;7.318;2024-02-15T10:47:15;9;9;
47810;PMS5003;33575;52.600;7.318;2024-02-15T10:49:49;8;7;
47810;PMS5003;33575;52.600;7.318;2024-02-15T10:52:16;9;9;
47810;PMS5003;33575;52.600;7.318;2024-02-15T10:54:47;9;9;
47810;PMS5003;33575;52.600;7.318;2024-02-15T10:57:20;6;6;
47810;PMS5003;33575;52.600;7.318;2024-02-15T10:59:51;7;7;
47810;PMS5003;33575;52.600;7.318;2024-02-15T11:02:23;9;8;
47810;PMS5003;33575;52.600;7.318;2024-02-15T11:04:48;7;7;
47810;PMS5003;33575;52.600;7.318;2024-02-15T11:07:24;7;7;
47810;PMS5003;33575;52.600;7.318;2024-02-15T11:09:49;10;8;
47810;PMS5003;33575;52.600;7.318;2024-02-15T11:12:20;8;7;
47810;PMS5003;33575;52.600;7.318;2024-02-15T11:14:50;7;7;
47810;PMS5003;33575;52.600;7.318;2024-02-15T11:19:51;8;7;
47810;PMS5003;33575;52.600;7.318;2024-02-15T11:22:21;6;6;
47810;PMS5003;33575;52.600;7.318;2024-02-15T11:24:52;7;5;
47810;PMS5003;33575;52.600;7.318;2024-02-15T11:27:23;4;4;
47810;PMS5003;33575;52.600;7.318;2024-02-15T11:29:54;5;5;
47810;PMS5003;33575;52.600;7.318;2024-02-15T11:39:58;5;5;
47810;PMS5003;33575;52.600;7.318;2024-02-15T11:42:25;7;6;
47810;PMS5003;33575;52.600;7.318;2024-02-15T11:47:26;6;6;
47810;PMS5003;33575;52.600;7.318;2024-02-15T11:49:56;5;5;
47810;PMS5003;33575;52.600;7.318;2024-02-15T11:52:27;6;6;
47810;PMS5003;33575;52.600;7.318;2024-02-15T11:57:28;8;7;
47810;PMS5003;33575;52.600;7.318;2024-02-15T11:59:58;6;5;
47810;PMS5003;33575;52.600;7.318;2024-02-15T12:02:29;5;5;
47810;PMS5003;33575;52.600;7.318;2024-02-15T12:04:59;5;5;
47810;PMS5003;33575;52.600;7.318;2024-02-15T12:07:29;7;6;
47810;PMS5003;33575;52.600;7.318;2024-02-15T12:10:00;7;7;
47810;PMS5003;33575;52.600;7.318;2024-02-15T12:12:30;6;6;
47810;PMS5003;33575;52.600;7.318;2024-02-15T12:15:01;9;9;
47810;PMS5003;33575;52.600;7.318;2024-02-15T12:17:31;10;8;
47810;PMS5003;33575;52.600;7.318;2024-02-15T12:20:03;11;10;
47810;PMS5003;33575;52.600;7.318;2024-02-15T12:22:33;9;7;
47810;PMS5003;33575;52.600;7.318;2024-02-15T12:25:03;9;8;
47810;PMS5003;33575;52.600;7.318;2024-02-15T12:27:33;9;9;
47810;PMS5003;33575;52.600;7.318;2024-02-15T12:30:04;9;8;
47810;PMS5003;33575;52.600;7.318;2024-02-15T12:32:34;12;12;
47810;PMS5003;33575;52.600;7.318;2024-02-15T12:37:35;12;11;
47810;PMS5003;33575;52.600;7.318;2024-02-15T12:40:10;12;12;
47810;PMS5003;33575;52.600;7.318;2024-02-15T12:42:37;13;13;
47810;PMS5003;33575;52.600;7.318;2024-02-15T12:45:06;10;10;
47810;PMS5003;33575;52.600;7.318;2024-02-15T12:47:36;14;13;
47810;PMS5003;33575;52.600;7.318;2024-02-15T12:52:37;13;13;
47810;PMS5003;33575;52.600;7.318;2024-02-15T12:55:09;12;12;
47810;PMS5003;33575;52.600;7.318;2024-02-15T12:57:38;14;11;
47810;PMS5003;33575;52.600;7.318;2024-02-15T13:00:09;24;19;
47810;PMS5003;33575;52.600;7.318;2024-02-15T13:02:38;11;10;
47810;PMS5003;33575;52.600;7.318;2024-02-15T13:05:09;13;13;
47810;PMS5003;33575;52.600;7.318;2024-02-15T13:07:39;13;13;
47810;PMS5003;33575;52.600;7.318;2024-02-15T13:10:10;11;10;
47810;PMS5003;33575;52.600;7.318;2024-02-15T13:12:40;12;11;
47810;PMS5003;33575;52.600;7.318;2024-02-15T13:15:11;14;12;
47810;PMS5003;33575;52.600;7.318;2024-02-15T13:17:43;12;11;
47810;PMS5003;33575;52.600;7.318;2024-02-15T13:20:12;14;13;
47810;PMS5003;33575;52.600;7.318;2024-02-15T13:22:42;13;13;
47810;PMS5003;33575;52.600;7.318;2024-02-15T13:25:13;14;11;
47810;PMS5003;33575;52.600;7.318;2024-02-15T13:27:43;14;13;
47810;PMS5003;33575;52.600;7.318;2024-02-15T13:30:14;13;13;
47810;PMS5003;33575;52.600;7.318;2024-02-15T13:32:44;15;15;
47810;PMS5003;33575;52.600;7.318;2024-02-15T13:35:15;14;13;
47810;PMS5003;33575;52.600;7.318;2024-02-15T13:37:46;16;13;
47810;PMS5003;33575;52.600;7.318;2024-02-15T13:40:15;37;35;
47810;PMS5003;33575;52.600;7.318;2024-02-15T13:42:46;36;34;
47810;PMS5003;33575;52.600;7.318;2024-02-15T13:45:16;35;34;
47810;PMS5003;33575;52.600;7.318;2024-02-15T13:47:46;30;27;
47810;PMS5003;33575;52.600;7.318;2024-02-15T13:50:17;32;32;
47810;PMS5003;33575;52.600;7.318;2024-02-15T13:52:47;26;24;
47810;PMS5003;33575;52.600;7.318;2024-02-15T13:55:18;24;19;
47810;PMS5003;33575;52.600;7.318;2024-02-15T13:57:48;28;27;
47810;PMS5003;33575;52.600;7.318;2024-02-15T14:00:19;23;23;
47810;PMS5003;33575;52.600;7.318;2024-02-15T14:02:49;28;27;
47810;PMS5003;33575;52.600;7.318;2024-02-15T14:05:20;26;25;
47810;PMS5003;33575;52.600;7.318;2024-02-15T14:07:50;25;23;
47810;PMS5003;33575;52.600;7.318;2024-02-15T14:10:20;22;20;
47810;PMS5003;33575;52.600;7.318;2024-02-15T14:12:51;20;20;
47810;PMS5003;33575;52.600;7.318;2024-02-15T14:15:21;20;19;
47810;PMS5003;33575;52.600;7.318;2024-02-15T14:17:52;31;31;
47810;PMS5003;33575;52.600;7.318;2024-02-15T14:20:22;15;14;
47810;PMS5003;33575;52.600;7.318;2024-02-15T14:22:53;12;10;
47810;PMS5003;33575;52.600;7.318;2024-02-15T14:25:23;10;10;
47810;PMS5003;33575;52.600;7.318;2024-02-15T14:27:54;9;9;
47810;PMS5003;33575;52.600;7.318;2024-02-15T14:30:24;12;11;
47810;PMS5003;33575;52.600;7.318;2024-02-15T14:32:55;10;10;
47810;PMS5003;33575;52.600;7.318;2024-02-15T14:35:25;8;8;
47810;PMS5003;33575;52.600;7.318;2024-02-15T14:37:55;7;7;
47810;PMS5003;33575;52.600;7.318;2024-02-15T14:40:27;10;8;
47810;PMS5003;33575;52.600;7.318;2024-02-15T14:42:58;10;9;
47810;PMS5003;33575;52.600;7.318;2024-02-15T14:45:27;8;8;
47810;PMS5003;33575;52.600;7.318;2024-02-15T14:47:57;10;9;
47810;PMS5003;33575;52.600;7.318;2024-02-15T14:50:27;7;7;
47810;PMS5003;33575;52.600;7.318;2024-02-15T14:52:58;9;8;
47810;PMS5003;33575;52.600;7.318;2024-02-15T14:55:28;7;7;
47810;PMS5003;33575;52.600;7.318;2024-02-15T14:58:03;9;7;
47810;PMS5003;33575;52.600;7.318;2024-02-15T15:00:29;8;7;
47810;PMS5003;33575;52.600;7.318;2024-02-15T15:03:00;11;10;
47810;PMS5003;33575;52.600;7.318;2024-02-15T15:05:30;12;11;
47810;PMS5003;33575;52.600;7.318;2024-02-15T15:08:00;7;7;
47810;PMS5003;33575;52.600;7.318;2024-02-15T15:10:31;7;7;
47810;PMS5003;33575;52.600;7.318;2024-02-15T15:13:01;8;7;
47810;PMS5003;33575;52.600;7.318;2024-02-15T15:15:32;9;8;
47810;PMS5003;33575;52.600;7.318;2024-02-15T15:18:02;8;7;
47810;PMS5003;33575;52.600;7.318;2024-02-15T15:20:32;9;8;
47810;PMS5003;33575;52.600;7.318;2024-02-15T15:23:04;7;7;
47810;PMS5003;33575;52.600;7.318;2024-02-15T15:25:33;8;8;
47810;PMS5003;33575;52.600;7.318;2024-02-15T15:28:04;6;5;
47810;PMS5003;33575;52.600;7.318;2024-02-15T15:30:34;7;6;
47810;PMS5003;33575;52.600;7.318;2024-02-15T15:33:05;9;8;
47810;PMS5003;33575;52.600;7.318;2024-02-15T15:35:35;7;7;
47810;PMS5003;33575;52.600;7.318;2024-02-15T15:38:05;9;7;
47810;PMS5003;33575;52.600;7.318;2024-02-15T15:40:36;10;8;
47810;PMS5003;33575;52.600;7.318;2024-02-15T15:43:06;8;7;
47810;PMS5003;33575;52.600;7.318;2024-02-15T15:45:37;7;7;
47810;PMS5003;33575;52.600;7.318;2024-02-15T15:48:07;7;6;
47810;PMS5003;33575;52.600;7.318;2024-02-15T15:50:37;8;7;
47810;PMS5003;33575;52.600;7.318;2024-02-15T15:53:08;7;7;
47810;PMS5003;33575;52.600;7.318;2024-02-15T15:55:38;9;8;
47810;PMS5003;33575;52.600;7.318;2024-02-15T15:58:08;8;7;
47810;PMS5003;33575;52.600;7.318;2024-02-15T16:00:39;5;5;
47810;PMS5003;33575;52.600;7.318;2024-02-15T16:03:09;7;5;
47810;PMS5003;33575;52.600;7.318;2024-02-15T16:05:39;8;7;
47810;PMS5003;33575;52.600;7.318;2024-02-15T16:08:09;12;9;
47810;PMS5003;33575;52.600;7.318;2024-02-15T16:10:40;11;10;
47810;PMS5003;33575;52.600;7.318;2024-02-15T16:13:11;8;8;
47810;PMS5003;33575;52.600;7.318;2024-02-15T16:15:41;9;7;
47810;PMS5003;33575;52.600;7.318;2024-02-15T16:18:11;9;9;
47810;PMS5003;33575;52.600;7.318;2024-02-15T16:20:41;7;7;
47810;PMS5003;33575;52.600;7.318;2024-02-15T16:23:12;12;7;
47810;PMS5003;33575;52.600;7.318;2024-02-15T16:25:42;9;8;
47810;PMS5003;33575;52.600;7.318;2024-02-15T16:28:12;10;9;
47810;PMS5003;33575;52.600;7.318;2024-02-15T16:30:43;11;10;
47810;PMS5003;33575;52.600;7.318;2024-02-15T16:33:13;12;9;
47810;PMS5003;33575;52.600;7.318;2024-02-15T16:35:44;15;13;
47810;PMS5003;33575;52.600;7.318;2024-02-15T16:38:14;13;13;
47810;PMS5003;33575;52.600;7.318;2024-02-15T16:40:44;17;16;
47810;PMS5003;33575;52.600;7.318;2024-02-15T16:43:15;10;9;
47810;PMS5003;33575;52.600;7.318;2024-02-15T16:45:45;9;7;
47810;PMS5003;33575;52.600;7.318;2024-02-15T16:48:16;13;9;
47810;PMS5003;33575;52.600;7.318;2024-02-15T16:50:46;11;10;
47810;PMS5003;33575;52.600;7.318;2024-02-15T16:53:17;18;17;
47810;PMS5003;33575;52.600;7.318;2024-02-15T16:55:47;16;15;
47810;PMS5003;33575;52.600;7.318;2024-02-15T16:58:18;10;10;
47810;PMS5003;33575;52.600;7.318;2024-02-15T17:00:48;10;10;
47810;PMS5003;33575;52.600;7.318;2024-02-15T17:03:18;9;9;